sensor_id;sensor_type;location;lat;lon;timestamp;pressure;altitude;pressure_sealevel;temperature;humidity
48874;BME280;66155;46.204;5.220;2023-01-29T00:02:18;99495.69;;;2.15;64.25
48874;BME280;66155;46.204;5.220;2023-01-29T00:07:19;99488.81;;;2.07;64.21
48874;BME280;66155;46.204;5.220;2023-01-29T00:12:19;99487.41;;;2.05;63.96
48874;BME280;66155;46.204;5.220;2023-01-29T00:17:20;99494.69;;;1.93;63.71
48874;BME280;66155;46.204;5.220;2023-01-29T00:22:20;99495.69;;;1.92;63.89
48874;BME280;66155;46.204;5.220;2023-01-29T00:27:21;99491.03;;;1.87;63.31
48874;BME280;66155;46.204;5.220;2023-01-29T00:32:21;99502.81;;;1.82;63.57
48874;BME280;66155;46.204;5.220;2023-01-29T00:37:21;99499.44;;;1.81;63.27
48874;BME280;66155;46.204;5.220;2023-01-29T00:42:22;99498.38;;;1.67;63.13
48874;BME280;66155;46.204;5.220;2023-01-29T00:47:41;99496.78;;;1.66;63.27
48874;BME280;66155;46.204;5.220;2023-01-29T00:52:41;99499.22;;;1.60;63.33
48874;BME280;66155;46.204;5.220;2023-01-29T00:57:42;99504.06;;;1.55;64.09
48874;BME280;66155;46.204;5.220;2023-01-29T01:02:45;99494.28;;;1.50;64.38
48874;BME280;66155;46.204;5.220;2023-01-29T01:08:04;99505.19;;;1.52;64.50
48874;BME280;66155;46.204;5.220;2023-01-29T01:13:24;99500.06;;;1.44;65.23
48874;BME280;66155;46.204;5.220;2023-01-29T01:18:28;99494.63;;;1.47;65.01
48874;BME280;66155;46.204;5.220;2023-01-29T01:23:29;99505.88;;;1.46;65.27
48874;BME280;66155;46.204;5.220;2023-01-29T01:28:29;99517.09;;;1.45;65.74
48874;BME280;66155;46.204;5.220;2023-01-29T01:33:30;99517.44;;;1.42;66.59
48874;BME280;66155;46.204;5.220;2023-01-29T01:38:30;99518.06;;;1.44;66.83
48874;BME280;66155;46.204;5.220;2023-01-29T01:43:49;99526.75;;;1.43;67.03
48874;BME280;66155;46.204;5.220;2023-01-29T01:49:15;99532.38;;;1.38;67.46
48874;BME280;66155;46.204;5.220;2023-01-29T01:54:19;99543.25;;;1.40;67.48
48874;BME280;66155;46.204;5.220;2023-01-29T01:59:22;99537.31;;;1.48;67.39
48874;BME280;66155;46.204;5.220;2023-01-29T02:04:24;99539.06;;;1.47;67.96
48874;BME280;66155;46.204;5.220;2023-01-29T02:09:49;99538.91;;;1.49;67.75
48874;BME280;66155;46.204;5.220;2023-01-29T02:14:51;99532.66;;;1.51;67.73
48874;BME280;66155;46.204;5.220;2023-01-29T02:30:39;99558.03;;;1.46;68.02
48874;BME280;66155;46.204;5.220;2023-01-29T02:35:45;99558.81;;;1.47;67.88
48874;BME280;66155;46.204;5.220;2023-01-29T02:40:54;99568.75;;;1.58;67.34
48874;BME280;66155;46.204;5.220;2023-01-29T02:46:10;99574.69;;;1.50;67.85
48874;BME280;66155;46.204;5.220;2023-01-29T02:51:23;99569.59;;;1.42;68.32
48874;BME280;66155;46.204;5.220;2023-01-29T02:56:40;99581.00;;;1.40;68.52
48874;BME280;66155;46.204;5.220;2023-01-29T03:01:55;99580.03;;;1.32;68.90
48874;BME280;66155;46.204;5.220;2023-01-29T03:07:00;99576.38;;;1.35;68.29
48874;BME280;66155;46.204;5.220;2023-01-29T03:12:08;99584.38;;;1.32;68.11
48874;BME280;66155;46.204;5.220;2023-01-29T03:17:35;99583.75;;;1.22;68.54
48874;BME280;66155;46.204;5.220;2023-01-29T03:22:37;99593.19;;;1.29;68.18
48874;BME280;66155;46.204;5.220;2023-01-29T03:27:48;99597.84;;;1.26;68.07
48874;BME280;66155;46.204;5.220;2023-01-29T03:33:10;99591.31;;;1.23;67.93
48874;BME280;66155;46.204;5.220;2023-01-29T03:38:11;99599.63;;;1.25;67.96
48874;BME280;66155;46.204;5.220;2023-01-29T03:43:46;99590.00;;;1.27;67.87
48874;BME280;66155;46.204;5.220;2023-01-29T03:54:04;99590.97;;;1.26;67.68
48874;BME280;66155;46.204;5.220;2023-01-29T04:04:23;99613.28;;;1.18;67.79
48874;BME280;66155;46.204;5.220;2023-01-29T04:09:39;99605.44;;;1.11;68.54
48874;BME280;66155;46.204;5.220;2023-01-29T04:14:40;99600.63;;;1.08;68.06
48874;BME280;66155;46.204;5.220;2023-01-29T04:19:40;99598.22;;;1.06;68.18
48874;BME280;66155;46.204;5.220;2023-01-29T04:24:41;99591.16;;;1.00;68.71
48874;BME280;66155;46.204;5.220;2023-01-29T04:35:25;99601.28;;;1.02;68.36
48874;BME280;66155;46.204;5.220;2023-01-29T04:51:19;99593.88;;;0.90;69.03
48874;BME280;66155;46.204;5.220;2023-01-29T04:56:32;99599.66;;;0.76;69.11
48874;BME280;66155;46.204;5.220;2023-01-29T05:01:35;99598.38;;;0.72;69.54
48874;BME280;66155;46.204;5.220;2023-01-29T05:06:38;99604.97;;;0.66;69.31
48874;BME280;66155;46.204;5.220;2023-01-29T05:11:39;99609.59;;;0.63;69.44
48874;BME280;66155;46.204;5.220;2023-01-29T05:16:46;99620.97;;;0.60;69.41
48874;BME280;66155;46.204;5.220;2023-01-29T05:21:49;99613.59;;;0.65;68.95
48874;BME280;66155;46.204;5.220;2023-01-29T05:26:52;99622.75;;;0.60;69.72
48874;BME280;66155;46.204;5.220;2023-01-29T05:32:12;99631.72;;;0.55;69.20
48874;BME280;66155;46.204;5.220;2023-01-29T05:37:13;99642.44;;;0.51;69.62
48874;BME280;66155;46.204;5.220;2023-01-29T05:42:13;99656.50;;;0.38;70.21
48874;BME280;66155;46.204;5.220;2023-01-29T05:47:17;99657.00;;;0.34;70.35
48874;BME280;66155;46.204;5.220;2023-01-29T05:52:18;99666.91;;;0.37;70.29
48874;BME280;66155;46.204;5.220;2023-01-29T05:57:18;99668.88;;;0.43;69.78
48874;BME280;66155;46.204;5.220;2023-01-29T06:02:18;99681.84;;;0.42;69.65
48874;BME280;66155;46.204;5.220;2023-01-29T06:07:20;99679.72;;;0.37;70.81
48874;BME280;66155;46.204;5.220;2023-01-29T06:12:20;99684.09;;;0.45;70.33
48874;BME280;66155;46.204;5.220;2023-01-29T06:17:21;99683.28;;;0.44;70.19
48874;BME280;66155;46.204;5.220;2023-01-29T06:22:21;99680.72;;;0.44;69.70
48874;BME280;66155;46.204;5.220;2023-01-29T06:27:22;99682.28;;;0.37;70.09
48874;BME280;66155;46.204;5.220;2023-01-29T06:32:22;99681.66;;;0.35;69.84
48874;BME280;66155;46.204;5.220;2023-01-29T06:37:22;99690.56;;;0.23;70.71
48874;BME280;66155;46.204;5.220;2023-01-29T06:42:23;99691.22;;;0.25;70.33
48874;BME280;66155;46.204;5.220;2023-01-29T06:47:26;99697.31;;;0.24;70.62
48874;BME280;66155;46.204;5.220;2023-01-29T06:52:27;99704.34;;;0.22;70.41
48874;BME280;66155;46.204;5.220;2023-01-29T06:57:28;99704.38;;;0.30;69.80
48874;BME280;66155;46.204;5.220;2023-01-29T07:02:29;99711.91;;;0.31;69.69
48874;BME280;66155;46.204;5.220;2023-01-29T07:07:29;99722.50;;;0.36;69.63
48874;BME280;66155;46.204;5.220;2023-01-29T07:12:29;99718.31;;;0.27;70.01
48874;BME280;66155;46.204;5.220;2023-01-29T07:17:30;99715.59;;;0.29;70.00
48874;BME280;66155;46.204;5.220;2023-01-29T07:22:31;99708.25;;;0.42;69.11
48874;BME280;66155;46.204;5.220;2023-01-29T07:27:31;99701.22;;;0.44;69.35
48874;BME280;66155;46.204;5.220;2023-01-29T07:32:32;99685.22;;;0.50;69.26
48874;BME280;66155;46.204;5.220;2023-01-29T07:37:32;99681.38;;;0.54;69.14
48874;BME280;66155;46.204;5.220;2023-01-29T07:42:32;99679.16;;;0.60;69.33
48874;BME280;66155;46.204;5.220;2023-01-29T07:47:33;99692.63;;;0.62;69.08
48874;BME280;66155;46.204;5.220;2023-01-29T07:52:34;99705.94;;;0.65;69.21
48874;BME280;66155;46.204;5.220;2023-01-29T07:57:34;99724.13;;;0.46;70.35
48874;BME280;66155;46.204;5.220;2023-01-29T08:02:34;99723.28;;;0.29;70.22
48874;BME280;66155;46.204;5.220;2023-01-29T08:07:35;99740.53;;;0.18;70.85
48874;BME280;66155;46.204;5.220;2023-01-29T08:12:35;99747.94;;;0.22;70.90
48874;BME280;66155;46.204;5.220;2023-01-29T08:17:36;99754.63;;;0.14;71.31
48874;BME280;66155;46.204;5.220;2023-01-29T08:22:38;99760.97;;;0.10;71.31
48874;BME280;66155;46.204;5.220;2023-01-29T08:27:39;99765.16;;;0.11;71.34
48874;BME280;66155;46.204;5.220;2023-01-29T08:32:39;99783.53;;;0.07;71.84
48874;BME280;66155;46.204;5.220;2023-01-29T08:37:39;99788.81;;;0.05;72.30
48874;BME280;66155;46.204;5.220;2023-01-29T08:42:40;99800.84;;;0.05;72.00
48874;BME280;66155;46.204;5.220;2023-01-29T08:47:50;99796.28;;;0.16;71.89
48874;BME280;66155;46.204;5.220;2023-01-29T08:52:50;99798.91;;;0.33;71.58
48874;BME280;66155;46.204;5.220;2023-01-29T08:57:51;99812.31;;;0.53;71.52
48874;BME280;66155;46.204;5.220;2023-01-29T09:02:51;99801.97;;;0.71;71.11
48874;BME280;66155;46.204;5.220;2023-01-29T09:07:51;99803.31;;;0.91;70.99
48874;BME280;66155;46.204;5.220;2023-01-29T09:12:52;99803.38;;;1.08;70.62
48874;BME280;66155;46.204;5.220;2023-01-29T09:17:52;99795.72;;;1.32;70.15
48874;BME280;66155;46.204;5.220;2023-01-29T09:22:52;99805.19;;;1.48;69.58
48874;BME280;66155;46.204;5.220;2023-01-29T09:27:56;99822.06;;;1.84;69.02
48874;BME280;66155;46.204;5.220;2023-01-29T09:32:59;99829.13;;;1.82;68.56
48874;BME280;66155;46.204;5.220;2023-01-29T09:37:59;99822.53;;;1.79;68.93
48874;BME280;66155;46.204;5.220;2023-01-29T09:43:13;99836.50;;;1.93;68.48
48874;BME280;66155;46.204;5.220;2023-01-29T09:48:16;99831.34;;;2.09;68.24
48874;BME280;66155;46.204;5.220;2023-01-29T09:53:38;99847.06;;;2.39;67.52
48874;BME280;66155;46.204;5.220;2023-01-29T09:58:41;99857.97;;;2.58;66.96
48874;BME280;66155;46.204;5.220;2023-01-29T10:04:05;99871.09;;;2.71;66.84
48874;BME280;66155;46.204;5.220;2023-01-29T10:15:12;99864.22;;;3.34;66.13
48874;BME280;66155;46.204;5.220;2023-01-29T10:20:46;99866.34;;;3.31;65.11
48874;BME280;66155;46.204;5.220;2023-01-29T10:25:49;99867.06;;;3.16;65.42
48874;BME280;66155;46.204;5.220;2023-01-29T10:30:56;99869.56;;;3.24;65.06
48874;BME280;66155;46.204;5.220;2023-01-29T10:36:02;99856.00;;;3.08;65.91
48874;BME280;66155;46.204;5.220;2023-01-29T10:57:51;99847.59;;;3.83;63.78
48874;BME280;66155;46.204;5.220;2023-01-29T11:02:56;99832.00;;;3.99;63.11
48874;BME280;66155;46.204;5.220;2023-01-29T11:08:03;99829.19;;;4.09;62.43
48874;BME280;66155;46.204;5.220;2023-01-29T11:13:04;99816.50;;;4.37;61.77
48874;BME280;66155;46.204;5.220;2023-01-29T11:18:08;99821.19;;;4.34;62.09
48874;BME280;66155;46.204;5.220;2023-01-29T11:23:38;99808.13;;;4.50;60.47
48874;BME280;66155;46.204;5.220;2023-01-29T11:28:49;99804.72;;;4.65;60.64
48874;BME280;66155;46.204;5.220;2023-01-29T11:33:53;99795.53;;;4.77;60.26
48874;BME280;66155;46.204;5.220;2023-01-29T11:39:14;99790.97;;;4.94;58.40
48874;BME280;66155;46.204;5.220;2023-01-29T11:44:19;99786.13;;;5.27;58.96
48874;BME280;66155;46.204;5.220;2023-01-29T11:49:30;99794.06;;;5.69;59.41
48874;BME280;66155;46.204;5.220;2023-01-29T11:54:59;99789.69;;;5.48;57.35
48874;BME280;66155;46.204;5.220;2023-01-29T12:00:16;99784.34;;;5.49;57.90
48874;BME280;66155;46.204;5.220;2023-01-29T12:05:24;99776.94;;;5.68;57.67
48874;BME280;66155;46.204;5.220;2023-01-29T12:15:36;99753.78;;;6.09;57.23
48874;BME280;66155;46.204;5.220;2023-01-29T12:21:01;99749.34;;;6.38;55.67
48874;BME280;66155;46.204;5.220;2023-01-29T12:26:09;99744.31;;;6.30;55.35
48874;BME280;66155;46.204;5.220;2023-01-29T12:31:35;99736.63;;;6.50;55.02
48874;BME280;66155;46.204;5.220;2023-01-29T12:36:48;99744.63;;;6.14;56.10
48874;BME280;66155;46.204;5.220;2023-01-29T12:42:00;99731.94;;;5.90;56.65
48874;BME280;66155;46.204;5.220;2023-01-29T12:47:05;99729.03;;;6.00;56.56
48874;BME280;66155;46.204;5.220;2023-01-29T12:52:11;99724.97;;;5.91;54.93
48874;BME280;66155;46.204;5.220;2023-01-29T12:57:21;99730.63;;;6.01;55.37
48874;BME280;66155;46.204;5.220;2023-01-29T13:02:31;99714.94;;;6.51;55.32
48874;BME280;66155;46.204;5.220;2023-01-29T13:07:38;99717.75;;;6.63;54.06
48874;BME280;66155;46.204;5.220;2023-01-29T13:12:50;99727.72;;;6.66;53.51
48874;BME280;66155;46.204;5.220;2023-01-29T13:17:56;99724.31;;;6.52;53.67
48874;BME280;66155;46.204;5.220;2023-01-29T13:23:03;99729.56;;;6.92;54.34
48874;BME280;66155;46.204;5.220;2023-01-29T13:28:21;99723.41;;;6.93;53.44
48874;BME280;66155;46.204;5.220;2023-01-29T13:33:22;99724.09;;;6.54;54.91
48874;BME280;66155;46.204;5.220;2023-01-29T13:38:42;99720.84;;;6.32;53.71
48874;BME280;66155;46.204;5.220;2023-01-29T13:43:47;99718.41;;;5.88;55.34
48874;BME280;66155;46.204;5.220;2023-01-29T13:48:50;99716.34;;;5.49;54.40
48874;BME280;66155;46.204;5.220;2023-01-29T13:54:03;99710.06;;;5.65;53.96
48874;BME280;66155;46.204;5.220;2023-01-29T13:59:05;99713.97;;;5.54;54.45
48874;BME280;66155;46.204;5.220;2023-01-29T14:20:16;99730.13;;;4.91;53.09
48874;BME280;66155;46.204;5.220;2023-01-29T14:25:19;99723.63;;;4.95;54.45
48874;BME280;66155;46.204;5.220;2023-01-29T14:30:23;99722.81;;;4.95;54.22
48874;BME280;66155;46.204;5.220;2023-01-29T14:35:26;99716.50;;;4.98;53.96
48874;BME280;66155;46.204;5.220;2023-01-29T14:40:28;99722.47;;;4.98;53.14
48874;BME280;66155;46.204;5.220;2023-01-29T14:45:39;99725.66;;;4.79;53.60
48874;BME280;66155;46.204;5.220;2023-01-29T14:50:48;99728.41;;;4.77;54.00
48874;BME280;66155;46.204;5.220;2023-01-29T15:01:30;99725.75;;;4.70;53.68
48874;BME280;66155;46.204;5.220;2023-01-29T15:06:47;99734.06;;;4.51;53.82
48874;BME280;66155;46.204;5.220;2023-01-29T15:17:48;99730.81;;;4.27;54.61
48874;BME280;66155;46.204;5.220;2023-01-29T15:22:51;99720.31;;;4.29;55.20
48874;BME280;66155;46.204;5.220;2023-01-29T15:27:52;99720.41;;;4.21;55.70
48874;BME280;66155;46.204;5.220;2023-01-29T15:32:55;99724.50;;;4.15;55.82
48874;BME280;66155;46.204;5.220;2023-01-29T15:38:19;99717.41;;;4.02;55.86
48874;BME280;66155;46.204;5.220;2023-01-29T15:43:25;99716.69;;;3.93;56.32
48874;BME280;66155;46.204;5.220;2023-01-29T15:48:33;99721.38;;;3.90;55.77
48874;BME280;66155;46.204;5.220;2023-01-29T15:53:41;99720.94;;;3.86;56.21
48874;BME280;66155;46.204;5.220;2023-01-29T15:58:46;99721.63;;;3.80;56.33
48874;BME280;66155;46.204;5.220;2023-01-29T16:03:48;99725.91;;;3.73;56.60
48874;BME280;66155;46.204;5.220;2023-01-29T16:08:51;99722.63;;;3.79;56.15
48874;BME280;66155;46.204;5.220;2023-01-29T16:13:52;99726.28;;;3.70;56.88
48874;BME280;66155;46.204;5.220;2023-01-29T16:18:54;99724.31;;;3.72;56.77
48874;BME280;66155;46.204;5.220;2023-01-29T16:23:57;99724.94;;;3.74;56.78
48874;BME280;66155;46.204;5.220;2023-01-29T16:29:10;99727.94;;;3.63;56.76
48874;BME280;66155;46.204;5.220;2023-01-29T16:34:24;99727.94;;;3.63;57.11
48874;BME280;66155;46.204;5.220;2023-01-29T16:39:31;99729.69;;;3.62;57.06
48874;BME280;66155;46.204;5.220;2023-01-29T16:44:38;99735.84;;;3.61;57.45
48874;BME280;66155;46.204;5.220;2023-01-29T16:54:41;99753.66;;;3.48;57.31
48874;BME280;66155;46.204;5.220;2023-01-29T16:59:42;99757.63;;;3.35;57.52
48874;BME280;66155;46.204;5.220;2023-01-29T17:04:45;99758.59;;;3.34;57.60
48874;BME280;66155;46.204;5.220;2023-01-29T17:09:48;99758.59;;;3.34;57.63
48874;BME280;66155;46.204;5.220;2023-01-29T17:14:57;99754.31;;;3.27;57.80
48874;BME280;66155;46.204;5.220;2023-01-29T17:20:08;99760.56;;;3.32;58.18
48874;BME280;66155;46.204;5.220;2023-01-29T17:25:13;99759.91;;;3.30;58.34
48874;BME280;66155;46.204;5.220;2023-01-29T17:30:14;99764.22;;;3.38;58.31
48874;BME280;66155;46.204;5.220;2023-01-29T17:35:16;99761.47;;;3.39;58.18
48874;BME280;66155;46.204;5.220;2023-01-29T17:40:39;99777.72;;;3.40;58.40
48874;BME280;66155;46.204;5.220;2023-01-29T17:45:40;99765.34;;;3.35;58.27
48874;BME280;66155;46.204;5.220;2023-01-29T17:50:43;99768.84;;;3.42;58.21
48874;BME280;66155;46.204;5.220;2023-01-29T17:55:47;99772.28;;;3.35;58.13
48874;BME280;66155;46.204;5.220;2023-01-29T18:00:49;99774.84;;;3.35;58.39
48874;BME280;66155;46.204;5.220;2023-01-29T18:05:49;99779.31;;;3.41;58.19
48874;BME280;66155;46.204;5.220;2023-01-29T18:10:49;99785.88;;;3.29;58.14
48874;BME280;66155;46.204;5.220;2023-01-29T18:15:50;99790.81;;;3.30;58.28
48874;BME280;66155;46.204;5.220;2023-01-29T18:20:52;99792.94;;;3.27;58.25
48874;BME280;66155;46.204;5.220;2023-01-29T18:25:52;99795.19;;;3.30;58.37
48874;BME280;66155;46.204;5.220;2023-01-29T18:30:56;99800.31;;;3.30;58.06
48874;BME280;66155;46.204;5.220;2023-01-29T18:35:57;99799.00;;;3.34;58.02
48874;BME280;66155;46.204;5.220;2023-01-29T18:41:07;99795.19;;;3.30;58.02
48874;BME280;66155;46.204;5.220;2023-01-29T18:46:11;99788.91;;;3.32;58.12
48874;BME280;66155;46.204;5.220;2023-01-29T18:51:11;99788.38;;;3.37;57.96
48874;BME280;66155;46.204;5.220;2023-01-29T18:56:12;99788.69;;;3.34;57.83
48874;BME280;66155;46.204;5.220;2023-01-29T19:01:12;99809.66;;;3.31;58.22
48874;BME280;66155;46.204;5.220;2023-01-29T19:06:13;99806.47;;;3.29;57.99
48874;BME280;66155;46.204;5.220;2023-01-29T19:11:13;99813.72;;;3.25;58.03
48874;BME280;66155;46.204;5.220;2023-01-29T19:16:14;99820.19;;;3.21;58.39
48874;BME280;66155;46.204;5.220;2023-01-29T19:21:15;99832.25;;;3.20;58.28
48874;BME280;66155;46.204;5.220;2023-01-29T19:26:16;99837.31;;;3.37;57.94
48874;BME280;66155;46.204;5.220;2023-01-29T19:31:16;99834.28;;;3.33;58.06
48874;BME280;66155;46.204;5.220;2023-01-29T19:36:16;99835.34;;;3.16;58.37
48874;BME280;66155;46.204;5.220;2023-01-29T19:41:17;99824.94;;;3.09;58.73
48874;BME280;66155;46.204;5.220;2023-01-29T19:46:18;99830.53;;;3.13;58.18
48874;BME280;66155;46.204;5.220;2023-01-29T19:51:18;99834.09;;;3.03;58.67
48874;BME280;66155;46.204;5.220;2023-01-29T19:56:20;99835.59;;;2.98;58.61
48874;BME280;66155;46.204;5.220;2023-01-29T20:01:20;99833.81;;;2.98;58.52
48874;BME280;66155;46.204;5.220;2023-01-29T20:06:23;99843.59;;;3.11;58.46
48874;BME280;66155;46.204;5.220;2023-01-29T20:11:24;99838.28;;;3.13;58.55
48874;BME280;66155;46.204;5.220;2023-01-29T20:16:25;99851.00;;;3.06;58.51
48874;BME280;66155;46.204;5.220;2023-01-29T20:21:25;99849.06;;;3.08;58.27
48874;BME280;66155;46.204;5.220;2023-01-29T20:26:26;99856.09;;;3.14;57.98
48874;BME280;66155;46.204;5.220;2023-01-29T20:31:26;99856.53;;;3.26;57.79
48874;BME280;66155;46.204;5.220;2023-01-29T20:36:27;99861.50;;;3.28;57.85
48874;BME280;66155;46.204;5.220;2023-01-29T20:41:27;99855.94;;;3.16;58.41
48874;BME280;66155;46.204;5.220;2023-01-29T20:46:28;99862.69;;;3.17;57.94
48874;BME280;66155;46.204;5.220;2023-01-29T20:51:29;99861.06;;;3.24;57.94
48874;BME280;66155;46.204;5.220;2023-01-29T20:56:29;99861.03;;;3.32;57.56
48874;BME280;66155;46.204;5.220;2023-01-29T21:01:30;99871.50;;;3.31;57.48
48874;BME280;66155;46.204;5.220;2023-01-29T21:06:30;99861.03;;;3.32;58.02
48874;BME280;66155;46.204;5.220;2023-01-29T21:11:31;99875.63;;;3.40;57.71
48874;BME280;66155;46.204;5.220;2023-01-29T21:16:32;99866.88;;;3.49;57.33
48874;BME280;66155;46.204;5.220;2023-01-29T21:21:33;99874.63;;;3.41;57.93
48874;BME280;66155;46.204;5.220;2023-01-29T21:26:34;99869.09;;;3.52;57.17
48874;BME280;66155;46.204;5.220;2023-01-29T21:31:37;99869.28;;;3.51;57.64
48874;BME280;66155;46.204;5.220;2023-01-29T21:36:38;99869.94;;;3.45;57.90
48874;BME280;66155;46.204;5.220;2023-01-29T21:41:38;99860.78;;;3.42;57.45
48874;BME280;66155;46.204;5.220;2023-01-29T21:46:57;99859.88;;;3.35;57.85
48874;BME280;66155;46.204;5.220;2023-01-29T21:51:58;99850.34;;;3.35;57.28
48874;BME280;66155;46.204;5.220;2023-01-29T21:56:58;99850.19;;;3.37;57.10
48874;BME280;66155;46.204;5.220;2023-01-29T22:01:59;99850.53;;;3.34;57.62
48874;BME280;66155;46.204;5.220;2023-01-29T22:07:00;99839.25;;;3.35;57.52
48874;BME280;66155;46.204;5.220;2023-01-29T22:12:00;99833.66;;;3.31;57.62
48874;BME280;66155;46.204;5.220;2023-01-29T22:17:00;99830.03;;;3.40;57.28
48874;BME280;66155;46.204;5.220;2023-01-29T22:22:04;99826.44;;;3.50;57.42
48874;BME280;66155;46.204;5.220;2023-01-29T22:27:04;99831.28;;;3.45;57.17
48874;BME280;66155;46.204;5.220;2023-01-29T22:32:05;99814.88;;;3.46;57.16
48874;BME280;66155;46.204;5.220;2023-01-29T22:37:05;99820.03;;;3.46;57.14
48874;BME280;66155;46.204;5.220;2023-01-29T22:42:06;99803.94;;;3.43;56.74
48874;BME280;66155;46.204;5.220;2023-01-29T22:47:07;99795.41;;;3.43;57.03
48874;BME280;66155;46.204;5.220;2023-01-29T22:52:07;99783.78;;;3.47;56.22
48874;BME280;66155;46.204;5.220;2023-01-29T22:57:13;99779.50;;;3.39;56.38
48874;BME280;66155;46.204;5.220;2023-01-29T23:02:13;99777.09;;;3.38;56.83
48874;BME280;66155;46.204;5.220;2023-01-29T23:07:14;99777.19;;;3.45;56.84
48874;BME280;66155;46.204;5.220;2023-01-29T23:12:14;99760.66;;;3.39;57.12
48874;BME280;66155;46.204;5.220;2023-01-29T23:17:15;99751.16;;;3.39;56.75
48874;BME280;66155;46.204;5.220;2023-01-29T23:22:15;99748.59;;;3.39;56.77
48874;BME280;66155;46.204;5.220;2023-01-29T23:27:16;99757.44;;;3.37;56.52
48874;BME280;66155;46.204;5.220;2023-01-29T23:32:18;99754.72;;;3.38;56.96
48874;BME280;66155;46.204;5.220;2023-01-29T23:37:19;99755.16;;;3.42;56.79
48874;BME280;66155;46.204;5.220;2023-01-29T23:42:19;99760.44;;;3.26;57.00
48874;BME280;66155;46.204;5.220;2023-01-29T23:47:20;99759.69;;;3.40;57.11
48874;BME280;66155;46.204;5.220;2023-01-29T23:52:20;99752.19;;;3.30;57.07
48874;BME280;66155;46.204;5.220;2023-01-29T23:57:20;99750.72;;;3.36;56.94
